General Francisco Javier Mina International Airport
MMTM : rendu visible

Aérodrome :











RETROUVEZ-NOUS SUR...

 
LOGIN :

S'inscrire | Disclaimer

   EN    FR    IT 

 









Légende :    VFR   VFR Marginal   IFR   IFR Intensif   IFR Très Intensif
Visi : 
Plafond : 
>= 8 km
>= 3000ft
5 à 8 km
1000 à 3000 ft
1500m à 5 km
500 à 1000 ft
800 à 1500m
200 à 500 ft
< 800m
< 200 ft
Symboles :   Orages  Brouillard  Fortes neiges  Fortes précipitations  Vent > 20 kt






- Altitude de l'aérodrome : 80 ft
- Code IATA : TAM


MMTM - General Francisco Javier Mina International

DERNIER METAR :
  • 171246Z E26002KT 1/4SM FG VV000 20/20 A2990 RMK 8////

METARs EXPIRÉS :
  • 171140Z E26002KT 1/4SM FG VV000 20/20 A2989 RMK SLP127 5//// 981 8////
  • 171055Z E26004KT 4SM SKC 20/20 A2988 RMK ST BR RTS

TAF AMD TAF MMTM
Valide du 17 à 12h jusqu'au 18 à 06h UTC


171158Z 1712/1806 00000KT 1/2SM FG VV000
FM171500 14005KT 2SM BR SCT005 BKN010
FM171600 14005KT 5SM HZ BKN015
FM171800 14010KT 6SM HZ SCT015
FM180300 14005KT 6SM HZ BKN015



MET'MAP, la Météo Aéronautique d'un coup d'oeil ! - Copyright ORBIFLY Décembre 2007 - Disclaimer

ORBIFLY MET'MAP TEAM :

Programmation & Développement : Alexandra Zaïnal
Sur une idée originale de : Baudouin d'Aumeries
Assistance à la programmation : Marc-Olivier Méhu
Soutien technique & logistique : Manuel Goepfert

Contact : metmap@orbifly.com




SOURCES & CREDITS :

   NOAA       Earth
Advisory